sensor_id;sensor_type;location;lat;lon;timestamp;pressure;altitude;pressure_sealevel;temperature;humidity
46291;BME280;32023;44.444;26.006;2022-12-29T00:01:17;101580.72;;;1.53;63.71
46291;BME280;32023;44.444;26.006;2022-12-29T00:03:46;101586.50;;;1.50;63.97
46291;BME280;32023;44.444;26.006;2022-12-29T00:06:12;101574.28;;;1.46;64.13
46291;BME280;32023;44.444;26.006;2022-12-29T00:08:42;101574.63;;;1.43;64.13
46291;BME280;32023;44.444;26.006;2022-12-29T00:11:12;101580.38;;;1.40;64.13
46291;BME280;32023;44.444;26.006;2022-12-29T00:13:39;101578.00;;;1.37;64.38
46291;BME280;32023;44.444;26.006;2022-12-29T00:16:24;101582.78;;;1.35;64.71
46291;BME280;32023;44.444;26.006;2022-12-29T00:18:54;101581.06;;;1.34;64.53
46291;BME280;32023;44.444;26.006;2022-12-29T00:21:24;101588.88;;;1.29;64.87
46291;BME280;32023;44.444;26.006;2022-12-29T00:24:39;101599.91;;;1.27;65.02
46291;BME280;32023;44.444;26.006;2022-12-29T00:27:25;101601.91;;;1.17;65.32
46291;BME280;32023;44.444;26.006;2022-12-29T00:30:15;101609.22;;;1.17;65.66
46291;BME280;32023;44.444;26.006;2022-12-29T00:33:09;101610.25;;;1.16;65.75
46291;BME280;32023;44.444;26.006;2022-12-29T00:36:01;101606.00;;;1.13;65.76
46291;BME280;32023;44.444;26.006;2022-12-29T00:38:29;101596.66;;;1.08;65.86
46291;BME280;32023;44.444;26.006;2022-12-29T00:41:16;101592.59;;;1.04;66.21
46291;BME280;32023;44.444;26.006;2022-12-29T00:44:02;101593.59;;;1.03;66.21
46291;BME280;32023;44.444;26.006;2022-12-29T00:46:35;101595.81;;;0.99;66.34
46291;BME280;32023;44.444;26.006;2022-12-29T00:49:02;101588.84;;;0.96;66.38
46291;BME280;32023;44.444;26.006;2022-12-29T00:51:48;101580.22;;;0.93;66.53
46291;BME280;32023;44.444;26.006;2022-12-29T00:54:15;101578.50;;;0.92;66.77
46291;BME280;32023;44.444;26.006;2022-12-29T00:56:52;101585.78;;;0.91;66.82
46291;BME280;32023;44.444;26.006;2022-12-29T00:59:49;101578.69;;;0.90;66.80
46291;BME280;32023;44.444;26.006;2022-12-29T01:02:38;101573.56;;;0.87;66.82
46291;BME280;32023;44.444;26.006;2022-12-29T01:05:05;101569.34;;;0.85;66.95
46291;BME280;32023;44.444;26.006;2022-12-29T01:07:32;101572.22;;;0.83;67.18
46291;BME280;32023;44.444;26.006;2022-12-29T01:10:05;101579.69;;;0.81;67.22
46291;BME280;32023;44.444;26.006;2022-12-29T01:12:37;101580.03;;;0.78;67.27
46291;BME280;32023;44.444;26.006;2022-12-29T01:15:11;101586.28;;;0.79;67.38
46291;BME280;32023;44.444;26.006;2022-12-29T01:17:55;101577.47;;;0.77;67.45
46291;BME280;32023;44.444;26.006;2022-12-29T01:20:24;101567.47;;;0.77;67.61
46291;BME280;32023;44.444;26.006;2022-12-29T01:22:56;101569.53;;;0.75;67.92
46291;BME280;32023;44.444;26.006;2022-12-29T01:25:22;101565.78;;;0.76;68.13
46291;BME280;32023;44.444;26.006;2022-12-29T01:27:50;101560.84;;;0.80;68.13
46291;BME280;32023;44.444;26.006;2022-12-29T01:30:16;101557.28;;;0.79;68.30
46291;BME280;32023;44.444;26.006;2022-12-29T01:32:43;101554.78;;;0.78;68.57
46291;BME280;32023;44.444;26.006;2022-12-29T01:35:09;101551.22;;;0.77;68.68
46291;BME280;32023;44.444;26.006;2022-12-29T01:37:36;101556.78;;;0.76;68.66
46291;BME280;32023;44.444;26.006;2022-12-29T01:40:03;101549.50;;;0.76;68.59
46291;BME280;32023;44.444;26.006;2022-12-29T01:42:29;101542.41;;;0.75;68.58
46291;BME280;32023;44.444;26.006;2022-12-29T01:45:09;101546.97;;;0.75;68.68
46291;BME280;32023;44.444;26.006;2022-12-29T01:48:01;101544.75;;;0.70;68.67
46291;BME280;32023;44.444;26.006;2022-12-29T01:50:38;101533.06;;;0.70;68.46
46291;BME280;32023;44.444;26.006;2022-12-29T01:53:20;101535.94;;;0.68;68.33
46291;BME280;32023;44.444;26.006;2022-12-29T01:55:51;101532.56;;;0.66;68.65
46291;BME280;32023;44.444;26.006;2022-12-29T01:58:24;101527.47;;;0.63;69.06
46291;BME280;32023;44.444;26.006;2022-12-29T02:00:52;101526.09;;;0.59;68.84
46291;BME280;32023;44.444;26.006;2022-12-29T02:03:23;101527.13;;;0.58;69.03
46291;BME280;32023;44.444;26.006;2022-12-29T02:06:02;101525.59;;;0.56;68.94
46291;BME280;32023;44.444;26.006;2022-12-29T02:08:46;101517.28;;;0.49;69.02
46291;BME280;32023;44.444;26.006;2022-12-29T02:11:13;101514.88;;;0.46;69.19
46291;BME280;32023;44.444;26.006;2022-12-29T02:13:39;101505.25;;;0.43;69.75
46291;BME280;32023;44.444;26.006;2022-12-29T02:31:05;101515.53;;;0.32;69.88
46291;BME280;32023;44.444;26.006;2022-12-29T02:36:21;101509.09;;;0.25;70.04
46291;BME280;32023;44.444;26.006;2022-12-29T02:39:15;101512.81;;;0.24;70.42
46291;BME280;32023;44.444;26.006;2022-12-29T02:52:27;101518.41;;;0.22;70.24
46291;BME280;32023;44.444;26.006;2022-12-29T02:54:59;101506.22;;;0.18;70.36
46291;BME280;32023;44.444;26.006;2022-12-29T03:00:12;101509.06;;;0.17;70.03
46291;BME280;32023;44.444;26.006;2022-12-29T03:09:16;101509.41;;;0.14;69.98
46291;BME280;32023;44.444;26.006;2022-12-29T03:11:59;101516.00;;;0.11;70.06
46291;BME280;32023;44.444;26.006;2022-12-29T03:17:58;101519.53;;;0.04;70.13
46291;BME280;32023;44.444;26.006;2022-12-29T03:23:48;101521.00;;;-0.02;70.49
46291;BME280;32023;44.444;26.006;2022-12-29T03:26:17;101518.16;;;-0.01;70.58
46291;BME280;32023;44.444;26.006;2022-12-29T03:28:52;101520.88;;;-0.01;70.91
46291;BME280;32023;44.444;26.006;2022-12-29T03:31:20;101512.56;;;0.01;70.84
46291;BME280;32023;44.444;26.006;2022-12-29T03:33:49;101522.38;;;0.02;70.79
46291;BME280;32023;44.444;26.006;2022-12-29T03:36:29;101517.81;;;0.03;70.69
46291;BME280;32023;44.444;26.006;2022-12-29T03:39:06;101515.13;;;0.03;70.67
46291;BME280;32023;44.444;26.006;2022-12-29T03:41:40;101509.00;;;0.00;70.59
46291;BME280;32023;44.444;26.006;2022-12-29T03:44:08;101511.03;;;-0.02;70.63
46291;BME280;32023;44.444;26.006;2022-12-29T03:46:56;101514.22;;;-0.06;70.53
46291;BME280;32023;44.444;26.006;2022-12-29T03:49:28;101514.22;;;-0.06;70.71
46291;BME280;32023;44.444;26.006;2022-12-29T03:52:00;101517.13;;;-0.08;70.74
46291;BME280;32023;44.444;26.006;2022-12-29T03:54:27;101521.16;;;-0.12;70.82
46291;BME280;32023;44.444;26.006;2022-12-29T03:56:53;101527.72;;;-0.14;70.95
46291;BME280;32023;44.444;26.006;2022-12-29T03:59:25;101529.56;;;-0.15;70.98
46291;BME280;32023;44.444;26.006;2022-12-29T04:01:56;101520.78;;;-0.17;70.84
46291;BME280;32023;44.444;26.006;2022-12-29T04:04:22;101528.06;;;-0.17;70.95
46291;BME280;32023;44.444;26.006;2022-12-29T04:06:49;101526.53;;;-0.20;71.04
46291;BME280;32023;44.444;26.006;2022-12-29T04:09:22;101530.91;;;-0.19;71.13
46291;BME280;32023;44.444;26.006;2022-12-29T04:11:48;101518.41;;;-0.20;71.12
46291;BME280;32023;44.444;26.006;2022-12-29T04:14:15;101515.00;;;-0.22;71.10
46291;BME280;32023;44.444;26.006;2022-12-29T04:16:41;101507.91;;;-0.23;71.26
46291;BME280;32023;44.444;26.006;2022-12-29T04:19:08;101512.28;;;-0.22;71.22
46291;BME280;32023;44.444;26.006;2022-12-29T04:21:34;101517.03;;;-0.24;71.33
46291;BME280;32023;44.444;26.006;2022-12-29T04:24:01;101509.91;;;-0.25;71.47
46291;BME280;32023;44.444;26.006;2022-12-29T04:26:27;101510.75;;;-0.24;71.84
46291;BME280;32023;44.444;26.006;2022-12-29T04:28:53;101517.03;;;-0.24;71.62
46291;BME280;32023;44.444;26.006;2022-12-29T04:31:23;101520.75;;;-0.25;71.42
46291;BME280;32023;44.444;26.006;2022-12-29T04:33:52;101514.13;;;-0.22;71.96
46291;BME280;32023;44.444;26.006;2022-12-29T04:36:18;101511.28;;;-0.21;71.59
46291;BME280;32023;44.444;26.006;2022-12-29T04:38:45;101510.97;;;-0.18;71.57
46291;BME280;32023;44.444;26.006;2022-12-29T04:41:11;101513.34;;;-0.15;71.26
46291;BME280;32023;44.444;26.006;2022-12-29T04:43:40;101507.91;;;-0.15;71.32
46291;BME280;32023;44.444;26.006;2022-12-29T04:46:07;101508.09;;;-0.16;71.42
46291;BME280;32023;44.444;26.006;2022-12-29T04:48:33;101504.53;;;-0.17;71.07
46291;BME280;32023;44.444;26.006;2022-12-29T04:50:59;101500.13;;;-0.18;71.63
46291;BME280;32023;44.444;26.006;2022-12-29T04:53:26;101499.78;;;-0.15;71.47
46291;BME280;32023;44.444;26.006;2022-12-29T04:55:57;101504.06;;;-0.12;71.53
46291;BME280;32023;44.444;26.006;2022-12-29T04:58:27;101502.22;;;-0.12;71.64
46291;BME280;32023;44.444;26.006;2022-12-29T05:00:53;101486.63;;;-0.10;71.56
46291;BME280;32023;44.444;26.006;2022-12-29T05:03:20;101498.84;;;-0.06;71.46
46291;BME280;32023;44.444;26.006;2022-12-29T05:05:46;101500.69;;;-0.06;71.30
46291;BME280;32023;44.444;26.006;2022-12-29T05:08:12;101505.09;;;-0.05;71.22
46291;BME280;32023;44.444;26.006;2022-12-29T05:10:39;101502.22;;;-0.04;71.28
46291;BME280;32023;44.444;26.006;2022-12-29T05:13:05;101505.63;;;-0.02;71.21
46291;BME280;32023;44.444;26.006;2022-12-29T05:15:32;101503.59;;;0.00;71.17
46291;BME280;32023;44.444;26.006;2022-12-29T05:18:01;101457.81;;;-0.27;71.15
46291;BME280;32023;44.444;26.006;2022-12-29T05:21:30;101493.59;;;0.01;71.10
46291;BME280;32023;44.444;26.006;2022-12-29T05:23:47;101494.47;;;0.02;71.25
46291;BME280;32023;44.444;26.006;2022-12-29T05:26:13;101501.25;;;0.06;71.49
46291;BME280;32023;44.444;26.006;2022-12-29T05:28:40;101492.78;;;0.09;71.26
46291;BME280;32023;44.444;26.006;2022-12-29T05:31:06;101496.88;;;0.13;71.13
46291;BME280;32023;44.444;26.006;2022-12-29T05:33:47;101485.69;;;0.16;71.01
46291;BME280;32023;44.444;26.006;2022-12-29T05:36:14;101490.81;;;0.19;71.13
46291;BME280;32023;44.444;26.006;2022-12-29T05:38:40;101491.97;;;0.16;71.05
46291;BME280;32023;44.444;26.006;2022-12-29T05:41:06;101491.97;;;0.16;71.06
46291;BME280;32023;44.444;26.006;2022-12-29T05:43:34;101491.13;;;0.16;71.05
46291;BME280;32023;44.444;26.006;2022-12-29T05:46:04;101484.66;;;0.09;71.62
46291;BME280;32023;44.444;26.006;2022-12-29T05:48:30;101485.50;;;0.09;71.99
46291;BME280;32023;44.444;26.006;2022-12-29T05:51:18;101351.00;;;-0.90;71.69
46291;BME280;32023;44.444;26.006;2022-12-29T05:53:45;101493.16;;;0.14;71.32
46291;BME280;32023;44.444;26.006;2022-12-29T05:56:18;101491.44;;;0.13;71.35
46291;BME280;32023;44.444;26.006;2022-12-29T05:58:45;101500.53;;;-0.05;71.82
46291;BME280;32023;44.444;26.006;2022-12-29T06:04:22;101514.47;;;-0.25;73.04
46291;BME280;32023;44.444;26.006;2022-12-29T06:06:48;101509.25;;;-0.19;73.31
46291;BME280;32023;44.444;26.006;2022-12-29T06:09:34;101520.81;;;-0.09;73.27
46291;BME280;32023;44.444;26.006;2022-12-29T06:12:05;101517.31;;;-0.01;72.79
46291;BME280;32023;44.444;26.006;2022-12-29T06:14:41;101521.56;;;0.10;72.12
46291;BME280;32023;44.444;26.006;2022-12-29T06:17:10;101530.22;;;0.13;71.34
46291;BME280;32023;44.444;26.006;2022-12-29T06:19:36;101524.75;;;0.05;71.22
46291;BME280;32023;44.444;26.006;2022-12-29T06:22:02;101522.56;;;0.09;70.96
46291;BME280;32023;44.444;26.006;2022-12-29T06:24:29;101527.91;;;0.34;71.09
46291;BME280;32023;44.444;26.006;2022-12-29T06:26:58;101527.47;;;0.63;70.56
46291;BME280;32023;44.444;26.006;2022-12-29T06:29:24;101530.91;;;0.89;69.74
46291;BME280;32023;44.444;26.006;2022-12-29T06:31:56;101532.06;;;1.03;67.73
46291;BME280;32023;44.444;26.006;2022-12-29T06:34:24;101532.25;;;1.18;67.02
46291;BME280;32023;44.444;26.006;2022-12-29T06:36:57;101539.00;;;1.38;66.37
46291;BME280;32023;44.444;26.006;2022-12-29T06:39:27;101535.94;;;1.41;65.66
46291;BME280;32023;44.444;26.006;2022-12-29T06:41:59;101534.28;;;1.32;65.38
46291;BME280;32023;44.444;26.006;2022-12-29T06:44:25;101533.88;;;1.51;65.82
46291;BME280;32023;44.444;26.006;2022-12-29T06:46:52;101533.84;;;1.83;65.16
46291;BME280;32023;44.444;26.006;2022-12-29T06:49:20;101535.72;;;2.22;64.42
46291;BME280;32023;44.444;26.006;2022-12-29T06:51:47;101529.22;;;2.62;63.46
46291;BME280;32023;44.444;26.006;2022-12-29T06:54:16;101524.69;;;3.00;62.15
46291;BME280;32023;44.444;26.006;2022-12-29T06:56:46;101523.22;;;3.34;60.88
46291;BME280;32023;44.444;26.006;2022-12-29T06:59:15;101522.69;;;3.68;59.86
46291;BME280;32023;44.444;26.006;2022-12-29T07:01:49;101531.53;;;4.00;59.33
46291;BME280;32023;44.444;26.006;2022-12-29T07:04:23;101527.75;;;4.30;58.16
46291;BME280;32023;44.444;26.006;2022-12-29T07:07:12;101537.28;;;4.55;56.54
46291;BME280;32023;44.444;26.006;2022-12-29T07:09:38;101532.91;;;4.75;56.17
46291;BME280;32023;44.444;26.006;2022-12-29T07:12:05;101542.72;;;4.91;54.75
46291;BME280;32023;44.444;26.006;2022-12-29T07:14:32;101546.94;;;5.15;54.40
46291;BME280;32023;44.444;26.006;2022-12-29T07:17:01;101533.34;;;5.43;53.89
46291;BME280;32023;44.444;26.006;2022-12-29T07:19:36;101531.25;;;5.72;53.20
46291;BME280;32023;44.444;26.006;2022-12-29T07:22:06;101534.22;;;6.05;52.17
46291;BME280;32023;44.444;26.006;2022-12-29T07:24:42;101528.16;;;6.10;50.82
46291;BME280;32023;44.444;26.006;2022-12-29T07:27:09;101532.44;;;6.19;51.22
46291;BME280;32023;44.444;26.006;2022-12-29T07:29:37;101521.97;;;6.42;50.84
46291;BME280;32023;44.444;26.006;2022-12-29T07:32:08;101534.09;;;6.61;50.54
46291;BME280;32023;44.444;26.006;2022-12-29T07:34:40;101532.50;;;7.06;49.59
46291;BME280;32023;44.444;26.006;2022-12-29T07:37:11;101528.31;;;7.43;48.51
46291;BME280;32023;44.444;26.006;2022-12-29T07:45:46;101534.75;;;8.34;45.73
46291;BME280;32023;44.444;26.006;2022-12-29T07:48:14;101524.00;;;8.70;45.02
46291;BME280;32023;44.444;26.006;2022-12-29T07:50:49;101534.41;;;8.99;43.85
46291;BME280;32023;44.444;26.006;2022-12-29T07:53:19;101534.59;;;9.36;43.63
46291;BME280;32023;44.444;26.006;2022-12-29T07:55:50;101529.88;;;9.67;42.72
46291;BME280;32023;44.444;26.006;2022-12-29T07:58:22;101535.41;;;9.86;42.60
46291;BME280;32023;44.444;26.006;2022-12-29T08:00:56;101528.75;;;10.18;41.90
46291;BME280;32023;44.444;26.006;2022-12-29T08:03:24;101514.13;;;10.36;40.96
46291;BME280;32023;44.444;26.006;2022-12-29T08:05:54;101526.00;;;10.36;40.79
46291;BME280;32023;44.444;26.006;2022-12-29T08:08:22;101525.81;;;10.68;40.29
46291;BME280;32023;44.444;26.006;2022-12-29T08:11:02;101523.81;;;11.04;39.77
46291;BME280;32023;44.444;26.006;2022-12-29T08:13:43;101516.00;;;11.43;38.97
46291;BME280;32023;44.444;26.006;2022-12-29T08:16:12;101514.47;;;11.58;38.65
46291;BME280;32023;44.444;26.006;2022-12-29T08:18:41;101515.13;;;11.84;37.68
46291;BME280;32023;44.444;26.006;2022-12-29T08:21:16;101515.56;;;11.69;36.93
46291;BME280;32023;44.444;26.006;2022-12-29T08:23:48;101520.34;;;11.62;37.47
46291;BME280;32023;44.444;26.006;2022-12-29T08:26:36;101521.16;;;11.39;37.07
46291;BME280;32023;44.444;26.006;2022-12-29T08:29:19;101525.03;;;11.62;37.08
46291;BME280;32023;44.444;26.006;2022-12-29T08:31:56;101520.31;;;11.39;37.39
46291;BME280;32023;44.444;26.006;2022-12-29T08:34:34;101530.28;;;11.40;36.96
46291;BME280;32023;44.444;26.006;2022-12-29T08:37:03;101521.09;;;11.16;37.21
46291;BME280;32023;44.444;26.006;2022-12-29T08:39:35;101531.22;;;11.34;37.78
46291;BME280;32023;44.444;26.006;2022-12-29T08:42:04;101521.28;;;11.44;37.62
46291;BME280;32023;44.444;26.006;2022-12-29T08:45:00;101516.44;;;11.93;37.03
46291;BME280;32023;44.444;26.006;2022-12-29T08:50:51;101504.09;;;11.31;36.99
46291;BME280;32023;44.444;26.006;2022-12-29T08:53:29;101507.97;;;11.41;36.92
46291;BME280;32023;44.444;26.006;2022-12-29T08:55:59;101505.50;;;11.75;37.16
46291;BME280;32023;44.444;26.006;2022-12-29T08:58:47;101496.66;;;12.47;35.88
46291;BME280;32023;44.444;26.006;2022-12-29T09:01:16;101509.94;;;12.62;34.76
46291;BME280;32023;44.444;26.006;2022-12-29T09:04:03;101488.66;;;13.19;34.38
46291;BME280;32023;44.444;26.006;2022-12-29T09:06:43;101489.84;;;13.57;33.59
46291;BME280;32023;44.444;26.006;2022-12-29T09:09:32;101477.19;;;13.77;32.89
46291;BME280;32023;44.444;26.006;2022-12-29T09:12:07;101473.09;;;13.46;33.42
46291;BME280;32023;44.444;26.006;2022-12-29T09:14:48;101478.13;;;13.66;33.10
46291;BME280;32023;44.444;26.006;2022-12-29T09:17:52;101478.53;;;14.13;32.64
46291;BME280;32023;44.444;26.006;2022-12-29T09:20:42;101526.03;;;14.22;32.15
46291;BME280;32023;44.444;26.006;2022-12-29T09:26:46;101466.69;;;14.83;31.75
46291;BME280;32023;44.444;26.006;2022-12-29T09:36:20;101458.09;;;15.80;29.91
46291;BME280;32023;44.444;26.006;2022-12-29T09:38:47;101447.78;;;15.75;29.28
46291;BME280;32023;44.444;26.006;2022-12-29T09:49:56;101428.97;;;16.45;28.19
46291;BME280;32023;44.444;26.006;2022-12-29T09:53:05;101440.28;;;17.05;27.19
46291;BME280;32023;44.444;26.006;2022-12-29T09:56:03;101433.88;;;17.45;26.54
46291;BME280;32023;44.444;26.006;2022-12-29T09:59:13;101424.97;;;17.43;26.47
46291;BME280;32023;44.444;26.006;2022-12-29T10:05:21;101419.44;;;18.53;24.92
46291;BME280;32023;44.444;26.006;2022-12-29T10:14:53;101412.78;;;22.08;20.72
46291;BME280;32023;44.444;26.006;2022-12-29T10:27:35;101391.91;;;21.23;20.79
46291;BME280;32023;44.444;26.006;2022-12-29T10:30:36;101387.38;;;19.86;22.09
46291;BME280;32023;44.444;26.006;2022-12-29T10:33:14;101401.53;;;20.98;21.14
46291;BME280;32023;44.444;26.006;2022-12-29T10:36:00;101391.78;;;20.95;21.31
46291;BME280;32023;44.444;26.006;2022-12-29T10:38:45;101389.50;;;20.97;21.17
46291;BME280;32023;44.444;26.006;2022-12-29T10:47:19;101380.03;;;22.18;19.93
46291;BME280;32023;44.444;26.006;2022-12-29T10:55:53;101367.53;;;23.45;19.13
46291;BME280;32023;44.444;26.006;2022-12-29T10:58:48;101370.34;;;23.31;19.38
46291;BME280;32023;44.444;26.006;2022-12-29T11:01:39;101363.47;;;22.93;19.59
46291;BME280;32023;44.444;26.006;2022-12-29T11:07:55;101358.44;;;23.48;19.11
46291;BME280;32023;44.444;26.006;2022-12-29T11:10:44;101358.84;;;24.68;18.17
46291;BME280;32023;44.444;26.006;2022-12-29T11:16:39;101360.06;;;23.80;18.58
46291;BME280;32023;44.444;26.006;2022-12-29T11:19:30;101358.81;;;22.88;19.30
46291;BME280;32023;44.444;26.006;2022-12-29T11:22:21;101360.53;;;24.13;18.74
46291;BME280;32023;44.444;26.006;2022-12-29T11:29:04;101358.75;;;24.17;18.18
46291;BME280;32023;44.444;26.006;2022-12-29T11:31:52;101356.56;;;24.14;18.35
46291;BME280;32023;44.444;26.006;2022-12-29T11:44:19;101346.25;;;24.01;18.58
46291;BME280;32023;44.444;26.006;2022-12-29T11:46:55;101345.06;;;23.31;19.18
46291;BME280;32023;44.444;26.006;2022-12-29T11:49:26;101329.31;;;23.44;19.36
46291;BME280;32023;44.444;26.006;2022-12-29T11:51:54;101330.53;;;23.07;19.49
46291;BME280;32023;44.444;26.006;2022-12-29T11:54:33;101305.09;;;23.12;19.39
46291;BME280;32023;44.444;26.006;2022-12-29T11:57:15;101321.78;;;23.39;19.42
46291;BME280;32023;44.444;26.006;2022-12-29T12:03:21;101331.16;;;23.04;19.86
46291;BME280;32023;44.444;26.006;2022-12-29T12:06:02;101328.13;;;23.23;19.48
46291;BME280;32023;44.444;26.006;2022-12-29T12:11:28;101317.28;;;22.85;20.01
46291;BME280;32023;44.444;26.006;2022-12-29T12:14:28;101317.25;;;22.27;20.39
46291;BME280;32023;44.444;26.006;2022-12-29T12:19:57;101307.94;;;21.91;21.18
46291;BME280;32023;44.444;26.006;2022-12-29T12:22:34;101309.56;;;21.65;21.29
46291;BME280;32023;44.444;26.006;2022-12-29T12:26:30;101303.78;;;21.15;21.86
46291;BME280;32023;44.444;26.006;2022-12-29T12:29:01;101304.84;;;21.00;22.37
46291;BME280;32023;44.444;26.006;2022-12-29T12:34:38;101307.28;;;20.56;22.98
46291;BME280;32023;44.444;26.006;2022-12-29T12:52:21;101302.00;;;16.65;28.05
46291;BME280;32023;44.444;26.006;2022-12-29T12:58:42;101286.09;;;16.66;28.89
46291;BME280;32023;44.444;26.006;2022-12-29T13:23:50;101298.63;;;14.28;33.63
46291;BME280;32023;44.444;26.006;2022-12-29T13:33:25;101298.72;;;13.85;35.02
46291;BME280;32023;44.444;26.006;2022-12-29T13:37:09;101294.09;;;13.69;35.15
46291;BME280;32023;44.444;26.006;2022-12-29T13:39:19;101293.03;;;13.53;35.48
46291;BME280;32023;44.444;26.006;2022-12-29T13:42:02;101301.22;;;13.43;35.86
46291;BME280;32023;44.444;26.006;2022-12-29T13:45:09;101290.03;;;13.16;36.41
46291;BME280;32023;44.444;26.006;2022-12-29T13:50:16;101293.06;;;12.48;38.22
46291;BME280;32023;44.444;26.006;2022-12-29T13:56:08;101288.00;;;12.28;38.51
46291;BME280;32023;44.444;26.006;2022-12-29T14:03:59;101290.09;;;11.93;39.82
46291;BME280;32023;44.444;26.006;2022-12-29T14:06:28;101292.69;;;11.71;40.81
46291;BME280;32023;44.444;26.006;2022-12-29T14:21:08;101299.31;;;10.66;43.89
46291;BME280;32023;44.444;26.006;2022-12-29T14:23:52;101295.59;;;10.48;44.79
46291;BME280;32023;44.444;26.006;2022-12-29T14:26:36;101297.63;;;10.41;44.55
46291;BME280;32023;44.444;26.006;2022-12-29T14:31:53;101304.38;;;9.97;46.57
46291;BME280;32023;44.444;26.006;2022-12-29T14:34:26;101306.94;;;9.81;46.97
46291;BME280;32023;44.444;26.006;2022-12-29T14:37:02;101298.41;;;9.52;47.73
46291;BME280;32023;44.444;26.006;2022-12-29T14:42:13;101298.22;;;8.93;50.31
46291;BME280;32023;44.444;26.006;2022-12-29T14:47:55;101310.00;;;8.50;51.39
46291;BME280;32023;44.444;26.006;2022-12-29T14:53:48;101302.56;;;8.19;52.84
46291;BME280;32023;44.444;26.006;2022-12-29T14:56:20;101309.41;;;8.10;53.58
46291;BME280;32023;44.444;26.006;2022-12-29T14:59:04;101303.13;;;8.03;53.73
46291;BME280;32023;44.444;26.006;2022-12-29T15:01:47;101307.00;;;7.89;54.22
46291;BME280;32023;44.444;26.006;2022-12-29T15:04:33;101302.44;;;7.77;54.87
46291;BME280;32023;44.444;26.006;2022-12-29T15:07:20;101301.22;;;7.59;55.86
46291;BME280;32023;44.444;26.006;2022-12-29T15:09:56;101296.63;;;7.53;56.13
46291;BME280;32023;44.444;26.006;2022-12-29T15:12:33;101297.09;;;7.44;56.36
46291;BME280;32023;44.444;26.006;2022-12-29T15:17:44;101304.09;;;7.26;56.79
46291;BME280;32023;44.444;26.006;2022-12-29T15:20:28;101306.00;;;7.19;57.31
46291;BME280;32023;44.444;26.006;2022-12-29T15:23:02;101303.09;;;7.08;57.84
46291;BME280;32023;44.444;26.006;2022-12-29T15:25:29;101309.03;;;6.98;58.48
46291;BME280;32023;44.444;26.006;2022-12-29T15:28:05;101303.53;;;6.85;59.03
46291;BME280;32023;44.444;26.006;2022-12-29T15:30:33;101298.50;;;6.75;59.40
46291;BME280;32023;44.444;26.006;2022-12-29T15:33:08;101298.94;;;6.66;59.93
46291;BME280;32023;44.444;26.006;2022-12-29T15:35:50;101296.81;;;6.55;60.66
46291;BME280;32023;44.444;26.006;2022-12-29T15:41:33;101293.88;;;6.43;61.38
46291;BME280;32023;44.444;26.006;2022-12-29T15:44:31;101303.78;;;6.38;61.77
46291;BME280;32023;44.444;26.006;2022-12-29T15:47:22;101300.59;;;6.27;62.33
46291;BME280;32023;44.444;26.006;2022-12-29T15:53:33;101301.03;;;6.18;62.79
46291;BME280;32023;44.444;26.006;2022-12-29T15:56:20;101303.53;;;6.13;63.07
46291;BME280;32023;44.444;26.006;2022-12-29T15:58:51;101318.69;;;6.15;63.22
46291;BME280;32023;44.444;26.006;2022-12-29T16:04:22;101314.25;;;6.08;64.71
46291;BME280;32023;44.444;26.006;2022-12-29T16:07:00;101308.16;;;6.06;64.89
46291;BME280;32023;44.444;26.006;2022-12-29T16:09:36;101309.19;;;5.98;65.42
46291;BME280;32023;44.444;26.006;2022-12-29T16:15:11;101312.31;;;5.95;66.57
46291;BME280;32023;44.444;26.006;2022-12-29T16:17:49;101306.63;;;5.97;66.39
46291;BME280;32023;44.444;26.006;2022-12-29T16:20:23;101291.06;;;5.91;66.88
46291;BME280;32023;44.444;26.006;2022-12-29T16:22:54;101288.16;;;5.92;67.23
46291;BME280;32023;44.444;26.006;2022-12-29T16:25:28;101292.53;;;5.93;67.21
46291;BME280;32023;44.444;26.006;2022-12-29T16:28:00;101288.34;;;5.91;67.19
46291;BME280;32023;44.444;26.006;2022-12-29T16:30:31;101290.22;;;5.90;67.67
46291;BME280;32023;44.444;26.006;2022-12-29T16:33:00;101288.75;;;5.94;67.07
46291;BME280;32023;44.444;26.006;2022-12-29T16:35:29;101284.97;;;5.89;67.21
46291;BME280;32023;44.444;26.006;2022-12-29T16:40:53;101290.13;;;5.70;67.66
46291;BME280;32023;44.444;26.006;2022-12-29T16:43:35;101300.84;;;5.65;67.65
46291;BME280;32023;44.444;26.006;2022-12-29T16:49:29;101295.81;;;5.62;67.90
46291;BME280;32023;44.444;26.006;2022-12-29T16:51:56;101300.00;;;5.58;68.27
46291;BME280;32023;44.444;26.006;2022-12-29T16:54:33;101298.28;;;5.57;68.20
46291;BME280;32023;44.444;26.006;2022-12-29T16:57:01;101310.50;;;5.61;68.31
46291;BME280;32023;44.444;26.006;2022-12-29T16:59:37;101305.03;;;5.61;68.96
46291;BME280;32023;44.444;26.006;2022-12-29T17:02:15;101304.00;;;5.62;68.70
46291;BME280;32023;44.444;26.006;2022-12-29T17:04:45;101299.56;;;5.61;68.47
46291;BME280;32023;44.444;26.006;2022-12-29T17:07:22;101297.88;;;5.60;68.96
46291;BME280;32023;44.444;26.006;2022-12-29T17:09:49;101311.31;;;5.55;68.93
46291;BME280;32023;44.444;26.006;2022-12-29T17:12:28;101311.94;;;5.51;69.67
46291;BME280;32023;44.444;26.006;2022-12-29T17:17:53;101312.97;;;5.43;70.07
46291;BME280;32023;44.444;26.006;2022-12-29T17:20:31;101313.81;;;5.44;70.17
46291;BME280;32023;44.444;26.006;2022-12-29T17:23:15;101318.78;;;5.40;69.57
46291;BME280;32023;44.444;26.006;2022-12-29T17:25:43;101317.31;;;5.38;70.08
46291;BME280;32023;44.444;26.006;2022-12-29T17:28:17;101310.38;;;5.35;69.80
46291;BME280;32023;44.444;26.006;2022-12-29T17:30:46;101315.81;;;5.28;70.34
46291;BME280;32023;44.444;26.006;2022-12-29T17:33:18;101310.13;;;5.23;70.57
46291;BME280;32023;44.444;26.006;2022-12-29T17:35:47;101307.72;;;5.14;70.98